createdAt,value
2018-06-08T04:30:59.660Z,252.00
2018-06-08T04:31:59.014Z,252.00
2018-06-08T04:33:51.719Z,252.00
2018-06-08T04:34:51.598Z,252.00
2018-06-08T04:36:44.291Z,252.00
2018-06-08T04:37:44.189Z,252.00
2018-06-08T04:39:36.897Z,252.00
2018-06-08T04:40:36.780Z,252.00
2018-06-08T04:42:29.465Z,252.00
2018-06-08T04:43:29.364Z,252.00
2018-06-08T04:45:22.067Z,252.00
2018-06-08T04:46:21.963Z,252.00
2018-06-08T04:48:14.675Z,252.00
2018-06-08T04:49:14.546Z,252.00
2018-06-08T04:51:07.236Z,252.00
2018-06-08T04:52:07.132Z,252.00
2018-06-08T04:53:59.844Z,252.00
2018-06-08T04:54:59.722Z,252.00
2018-06-08T04:56:52.407Z,252.00
2018-06-08T04:57:52.307Z,252.00
2018-06-08T04:59:45.023Z,252.00
2018-06-08T05:00:44.894Z,252.00
2018-06-08T05:02:37.581Z,252.00
2018-06-08T05:03:37.483Z,252.00
2018-06-08T05:05:30.184Z,252.00
2018-06-08T05:06:30.072Z,252.00
2018-06-08T05:08:22.756Z,252.00
2018-06-08T05:09:22.654Z,252.00
2018-06-08T05:11:15.357Z,252.00
2018-06-08T05:12:15.243Z,252.00
2018-06-08T05:14:07.944Z,252.00
2018-06-08T05:15:07.846Z,252.00
2018-06-08T05:17:00.583Z,252.00
2018-06-08T05:18:00.435Z,252.00
2018-06-08T05:19:53.128Z,252.00
2018-06-08T05:20:53.028Z,252.00
2018-06-08T05:22:45.739Z,252.00
2018-06-08T05:23:45.619Z,252.00
2018-06-08T05:25:38.355Z,252.00
2018-06-08T05:26:38.242Z,252.00
2018-06-08T05:28:30.929Z,252.00
2018-06-08T05:29:30.823Z,252.00
2018-06-08T05:31:23.542Z,252.00
2018-06-08T05:32:23.425Z,252.00
2018-06-08T05:34:16.111Z,252.00
2018-06-08T05:35:16.017Z,252.00
2018-06-08T05:37:08.729Z,252.00
2018-06-08T05:38:08.609Z,252.00
2018-06-08T05:40:01.417Z,252.00
2018-06-08T05:41:01.203Z,252.00
2018-06-08T05:42:53.908Z,252.00
2018-06-08T05:43:53.786Z,252.00
2018-06-08T05:45:46.494Z,252.00
2018-06-08T05:46:46.379Z,252.00
2018-06-08T05:48:39.066Z,252.00
2018-06-08T05:49:38.974Z,252.00
2018-06-08T05:51:31.694Z,252.00
2018-06-08T05:52:31.562Z,252.00
2018-06-08T05:54:24.255Z,252.00
2018-06-08T05:55:24.157Z,252.00
2018-06-08T05:57:16.871Z,252.00
2018-06-08T05:58:16.744Z,252.00
2018-06-08T06:00:09.476Z,252.00
2018-06-08T06:01:09.420Z,252.00
2018-06-08T06:03:02.084Z,252.00
2018-06-08T06:04:01.966Z,252.00
2018-06-08T06:05:54.658Z,252.00
2018-06-08T06:06:54.558Z,252.00
2018-06-08T06:08:47.267Z,252.00
2018-06-08T06:09:47.146Z,252.00
2018-06-08T06:11:39.835Z,252.00
2018-06-08T06:12:39.742Z,252.00
2018-06-08T06:14:32.447Z,252.00
2018-06-08T06:15:32.330Z,252.00
2018-06-08T06:17:25.017Z,252.00
2018-06-08T06:18:24.964Z,252.00
2018-06-08T06:20:17.638Z,252.00
2018-06-08T06:21:17.510Z,252.00
2018-06-08T06:23:10.202Z,252.00
2018-06-08T06:24:10.109Z,252.00
2018-06-08T06:26:02.822Z,252.00
2018-06-08T06:27:02.701Z,252.00
2018-06-08T06:28:55.399Z,252.00
2018-06-08T06:29:55.294Z,252.00
2018-06-08T06:31:48.001Z,252.00
2018-06-08T06:32:47.895Z,252.00
2018-06-08T06:34:40.586Z,252.00
2018-06-08T06:35:40.484Z,252.00
2018-06-08T06:37:33.203Z,252.00
2018-06-08T06:38:33.089Z,252.00
2018-06-08T06:40:25.834Z,252.00
2018-06-08T06:41:25.712Z,252.00
2018-06-08T06:43:18.405Z,252.00
2018-06-08T06:44:18.310Z,252.00
2018-06-08T06:46:11.027Z,252.00
2018-06-08T06:47:10.906Z,252.00
2018-06-08T06:49:03.596Z,252.00
2018-06-08T06:50:03.501Z,252.00
2018-06-08T06:51:56.221Z,252.00
2018-06-08T06:52:56.094Z,252.00
2018-06-08T06:54:48.786Z,14976.00
2018-06-08T06:55:48.688Z,15648.00
2018-06-08T06:57:41.409Z,16352.00
2018-06-08T06:58:41.292Z,16352.00
2018-06-08T07:00:34.003Z,16128.00
2018-06-08T07:01:33.895Z,15712.00
2018-06-08T07:03:26.614Z,15008.00
2018-06-08T07:04:26.545Z,15008.00
2018-06-08T07:06:19.187Z,12768.00
2018-06-08T07:07:19.091Z,12364.00
2018-06-08T07:09:11.802Z,11896.00
2018-06-08T07:10:11.681Z,11896.00
2018-06-08T07:12:04.377Z,11632.00
2018-06-08T07:13:04.276Z,11908.00
2018-06-08T07:14:56.989Z,12128.00
2018-06-08T07:15:56.884Z,12128.00
2018-06-08T07:17:49.569Z,13760.00
2018-06-08T07:18:49.516Z,14092.00
2018-06-08T07:20:42.189Z,13868.00
2018-06-08T07:21:42.075Z,13868.00
2018-06-08T07:23:34.781Z,12440.00
2018-06-08T07:24:34.677Z,12020.00
2018-06-08T07:26:27.390Z,11688.00
2018-06-08T07:27:27.274Z,11688.00
2018-06-08T07:29:19.970Z,11564.00
2018-06-08T07:30:19.874Z,11556.00
2018-06-08T07:32:12.600Z,11432.00
2018-06-08T07:33:12.477Z,11432.00
2018-06-08T07:35:05.192Z,10816.00
2018-06-08T07:36:05.067Z,10700.00
2018-06-08T07:37:57.760Z,10656.00
2018-06-08T07:38:57.664Z,10656.00
2018-06-08T07:40:50.720Z,10800.00
2018-06-08T07:41:50.265Z,10960.00
2018-06-08T07:43:42.957Z,11304.00
2018-06-08T07:44:42.856Z,11304.00
2018-06-08T07:46:35.580Z,12844.00
2018-06-08T07:47:35.459Z,13348.00
2018-06-08T07:49:28.150Z,13628.00
2018-06-08T07:50:28.058Z,13628.00
2018-06-08T07:52:20.773Z,13256.00
2018-06-08T07:53:20.652Z,13264.00
2018-06-08T07:55:13.343Z,13056.00
2018-06-08T07:56:13.258Z,13056.00
2018-06-08T07:58:05.960Z,12092.00
2018-06-08T07:59:05.847Z,12072.00
2018-06-08T08:00:58.542Z,11784.00
2018-06-08T08:01:58.445Z,11784.00
2018-06-08T08:03:51.157Z,11520.00
2018-06-08T08:04:51.039Z,11476.00
2018-06-08T08:06:43.735Z,11492.00
2018-06-08T08:07:43.642Z,11492.00
2018-06-08T08:09:36.358Z,11448.00
2018-06-08T08:10:36.237Z,11488.00
2018-06-08T08:12:28.925Z,11492.00
2018-06-08T08:13:28.828Z,11492.00
2018-06-08T08:15:21.539Z,11364.00
2018-06-08T08:16:21.428Z,11392.00
2018-06-08T08:18:14.140Z,11372.00
2018-06-08T08:19:14.049Z,11372.00
2018-06-08T08:21:06.713Z,10924.00
2018-06-08T08:22:06.622Z,10616.00
2018-06-08T08:23:59.344Z,9972.00
2018-06-08T08:24:59.224Z,9972.00
2018-06-08T08:26:51.911Z,7700.00
2018-06-08T08:27:51.814Z,7208.00
2018-06-08T08:29:44.527Z,6668.00
2018-06-08T08:30:44.406Z,6668.00
2018-06-08T08:32:37.101Z,5804.00
2018-06-08T08:33:37.021Z,5680.00
2018-06-08T08:35:30.211Z,5600.00
2018-06-08T08:36:30.089Z,5600.00
2018-06-08T08:38:22.788Z,5600.00
2018-06-08T08:39:22.691Z,5600.00
2018-06-08T08:41:15.400Z,5600.00
2018-06-08T08:42:15.287Z,5600.00
2018-06-08T08:44:08.000Z,5600.00
2018-06-08T08:45:07.895Z,5600.00
2018-06-08T08:47:00.607Z,5600.00
2018-06-08T08:48:00.490Z,5600.00
2018-06-08T08:49:53.181Z,5600.00
2018-06-08T08:50:53.128Z,5600.00
2018-06-08T08:52:45.803Z,5600.00
2018-06-08T08:53:45.683Z,5600.00
2018-06-08T08:55:38.526Z,5600.00
2018-06-08T08:56:38.281Z,5600.00
2018-06-08T08:58:30.996Z,5600.00
2018-06-08T08:59:30.875Z,5600.00
2018-06-08T09:01:23.570Z,5600.00
2018-06-08T09:02:23.476Z,5600.00
2018-06-08T09:04:16.187Z,9732.00
2018-06-08T09:05:16.070Z,10020.00
2018-06-08T09:07:08.764Z,10432.00
2018-06-08T09:08:08.664Z,10432.00
2018-06-08T09:10:01.376Z,11368.00
2018-06-08T09:11:01.261Z,11644.00
2018-06-08T09:12:53.951Z,11916.00
2018-06-08T09:13:53.860Z,11916.00
2018-06-08T09:15:46.569Z,12084.00
2018-06-08T09:16:46.453Z,12152.00
2018-06-08T09:18:39.146Z,12264.00
2018-06-08T09:19:39.051Z,12264.00
2018-06-08T09:21:31.759Z,12236.00
2018-06-08T09:22:31.644Z,12296.00
2018-06-08T09:24:24.341Z,12508.00
2018-06-08T09:25:24.245Z,12508.00
2018-06-08T09:27:17.169Z,13148.00
2018-06-08T09:28:17.033Z,13176.00
2018-06-08T09:30:09.739Z,12980.00
2018-06-08T09:31:09.621Z,12980.00
2018-06-08T09:33:02.340Z,12452.00
2018-06-08T09:34:02.219Z,12536.00
2018-06-08T09:35:55.067Z,12396.00
2018-06-08T09:36:54.825Z,12396.00
2018-06-08T09:38:47.538Z,11376.00
2018-06-08T09:39:47.424Z,11224.00
2018-06-08T09:41:40.131Z,11148.00
2018-06-08T09:42:40.029Z,11148.00
2018-06-08T09:44:32.741Z,11300.00
2018-06-08T09:45:32.622Z,11364.00
2018-06-08T09:47:25.349Z,11360.00
2018-06-08T09:48:25.228Z,11360.00
2018-06-08T09:50:17.927Z,10864.00
2018-06-08T09:51:17.824Z,10668.00
2018-06-08T09:53:10.533Z,10468.00
2018-06-08T09:54:10.424Z,10468.00
2018-06-08T09:56:03.119Z,10144.00
2018-06-08T09:57:03.016Z,10044.00
2018-06-08T09:58:55.726Z,9816.00
2018-06-08T09:59:55.613Z,9816.00
2018-06-08T10:01:48.458Z,9616.00
2018-06-08T10:02:48.213Z,9680.00
2018-06-08T10:04:40.926Z,9424.00
2018-06-08T10:05:40.809Z,9424.00
2018-06-08T10:07:33.515Z,9188.00
2018-06-08T10:08:33.414Z,8540.00
2018-06-08T10:10:26.126Z,8492.00
2018-06-08T10:11:26.006Z,8492.00
2018-06-08T10:13:18.727Z,8128.00
2018-06-08T10:14:18.611Z,8032.00
2018-06-08T10:16:11.299Z,7644.00
2018-06-08T10:17:11.199Z,7644.00
2018-06-08T10:19:03.922Z,6724.00
2018-06-08T10:20:03.802Z,6540.00
2018-06-08T10:21:56.496Z,6272.00
2018-06-08T10:22:56.391Z,6272.00
2018-06-08T10:24:49.101Z,6272.00
2018-06-08T10:25:48.991Z,6272.00
2018-06-08T10:27:41.680Z,6272.00
2018-06-08T10:28:41.582Z,6272.00
2018-06-08T10:30:34.290Z,6272.00
2018-06-08T10:31:34.178Z,6272.00
2018-06-08T10:33:26.869Z,6272.00
2018-06-08T10:34:26.766Z,6272.00
2018-06-08T10:36:19.963Z,6272.00
2018-06-08T10:37:19.854Z,6272.00
2018-06-08T10:39:12.546Z,6272.00
2018-06-08T10:40:12.448Z,6272.00
2018-06-08T10:42:05.157Z,6272.00
2018-06-08T10:43:05.039Z,6272.00
2018-06-08T10:44:57.727Z,6272.00
2018-06-08T10:45:57.631Z,6272.00
2018-06-08T10:47:50.343Z,6272.00
2018-06-08T10:48:50.228Z,6272.00
2018-06-08T10:50:43.065Z,6272.00
2018-06-08T10:51:42.823Z,6272.00
2018-06-08T10:53:35.565Z,6272.00
2018-06-08T10:54:35.421Z,6272.00
2018-06-08T10:56:28.109Z,6272.00
2018-06-08T10:57:28.015Z,6272.00
2018-06-08T10:59:20.806Z,6272.00
2018-06-08T11:00:20.693Z,6272.00
2018-06-08T11:02:13.376Z,6272.00
2018-06-08T11:03:13.281Z,6272.00
2018-06-08T11:05:05.999Z,6272.00
2018-06-08T11:06:05.883Z,6272.00
2018-06-08T11:07:58.599Z,6272.00
2018-06-08T11:08:58.480Z,6272.00
2018-06-08T11:10:51.158Z,6272.00
2018-06-08T11:11:51.069Z,6272.00
2018-06-08T11:13:43.778Z,6272.00
2018-06-08T11:14:43.646Z,6272.00
2018-06-08T11:16:36.331Z,6272.00
2018-06-08T11:17:36.232Z,6272.00
2018-06-08T11:19:28.951Z,6272.00
2018-06-08T11:20:28.821Z,6272.00
2018-06-08T11:22:21.517Z,6272.00
2018-06-08T11:23:21.420Z,6272.00
2018-06-08T11:25:14.124Z,6272.00
2018-06-08T11:26:14.011Z,6272.00
2018-06-08T11:28:06.698Z,6272.00
2018-06-08T11:29:06.603Z,6272.00
2018-06-08T11:30:59.317Z,6272.00
2018-06-08T11:31:59.194Z,6272.00
2018-06-08T11:33:51.880Z,6272.00
2018-06-08T11:34:51.777Z,6272.00
2018-06-08T11:36:44.492Z,6272.00
2018-06-08T11:37:44.373Z,6272.00
2018-06-08T11:39:37.065Z,6272.00
2018-06-08T11:40:36.974Z,6272.00
2018-06-08T11:42:29.672Z,6272.00
2018-06-08T11:43:29.555Z,6272.00
2018-06-08T11:45:22.239Z,6272.00
2018-06-08T11:46:22.141Z,6272.00
2018-06-08T11:48:14.858Z,6272.00
2018-06-08T11:49:14.725Z,6272.00
2018-06-08T11:51:07.419Z,6272.00
2018-06-08T11:52:07.315Z,6272.00
2018-06-08T11:54:00.038Z,6272.00
2018-06-08T11:54:59.909Z,6272.00
2018-06-08T11:56:52.592Z,6272.00
2018-06-08T11:57:52.489Z,6272.00
2018-06-08T11:59:45.199Z,6272.00
2018-06-08T12:00:45.082Z,6272.00
2018-06-08T12:02:37.881Z,6272.00
2018-06-08T12:03:37.759Z,6272.00
2018-06-08T12:05:30.447Z,6272.00
2018-06-08T12:06:30.349Z,6272.00
2018-06-08T12:08:23.567Z,6272.00
2018-06-08T12:09:23.438Z,6272.00
2018-06-08T12:11:16.124Z,6272.00
2018-06-08T12:12:16.024Z,6272.00
2018-06-08T12:14:08.734Z,6272.00
2018-06-08T12:15:08.611Z,6272.00
2018-06-08T12:17:01.331Z,6272.00
2018-06-08T12:18:01.199Z,6272.00
2018-06-08T12:19:53.902Z,6272.00
2018-06-08T12:20:53.788Z,6272.00
2018-06-08T12:22:46.470Z,6272.00
2018-06-08T12:23:46.392Z,6272.00
2018-06-08T12:25:39.075Z,6272.00
2018-06-08T12:26:38.964Z,6272.00
2018-06-08T12:28:31.656Z,6272.00
2018-06-08T12:29:31.551Z,6272.00
2018-06-08T12:31:24.269Z,6272.00
2018-06-08T12:32:24.150Z,6272.00
2018-06-08T12:34:16.858Z,6272.00
2018-06-08T12:35:16.740Z,6272.00
2018-06-08T12:37:09.441Z,6272.00
2018-06-08T12:38:09.343Z,6272.00
2018-06-08T12:40:02.044Z,6272.00
2018-06-08T12:41:01.932Z,6272.00
2018-06-08T12:42:54.632Z,6272.00
2018-06-08T12:43:54.523Z,6272.00
2018-06-08T12:45:47.253Z,6272.00
2018-06-08T12:46:47.141Z,6272.00
2018-06-08T12:48:39.829Z,6272.00
2018-06-08T12:49:39.729Z,6272.00
2018-06-08T12:51:32.442Z,6272.00
2018-06-08T12:52:32.364Z,6272.00
2018-06-08T12:54:25.036Z,6272.00
2018-06-08T12:55:24.931Z,6272.00
2018-06-08T12:57:17.604Z,6272.00
2018-06-08T12:58:17.501Z,6272.00
2018-06-08T13:00:10.211Z,6272.00
2018-06-08T13:01:10.107Z,6272.00
2018-06-08T13:03:02.785Z,6272.00
2018-06-08T13:04:02.687Z,6272.00
2018-06-08T13:05:55.395Z,6272.00
2018-06-08T13:06:55.272Z,6272.00
2018-06-08T13:08:47.980Z,6272.00
2018-06-08T13:09:47.890Z,6272.00
2018-06-08T13:11:40.576Z,6272.00
2018-06-08T13:12:40.449Z,6272.00
2018-06-08T13:14:33.136Z,6272.00
2018-06-08T13:15:33.037Z,6272.00
2018-06-08T13:17:25.745Z,6272.00
2018-06-08T13:18:25.630Z,6272.00
2018-06-08T13:20:18.352Z,6272.00
2018-06-08T13:21:18.304Z,6272.00
2018-06-08T13:23:10.967Z,6272.00
2018-06-08T13:24:10.850Z,6272.00
2018-06-08T13:26:03.614Z,6272.00
2018-06-08T13:27:03.755Z,6272.00
2018-06-08T13:28:56.422Z,6272.00
2018-06-08T13:29:56.137Z,6272.00
2018-06-08T13:31:48.976Z,6272.00
2018-06-08T13:32:48.755Z,6272.00
2018-06-08T13:34:41.583Z,6272.00
2018-06-08T13:35:41.693Z,6272.00
2018-06-08T13:37:34.132Z,6272.00
2018-06-08T13:38:34.034Z,6272.00
2018-06-08T13:40:26.713Z,6272.00
2018-06-08T13:41:26.611Z,6272.00
2018-06-08T13:43:19.325Z,6272.00
2018-06-08T13:44:19.209Z,6272.00
2018-06-08T13:46:11.909Z,6272.00
2018-06-08T13:47:11.801Z,6272.00
2018-06-08T13:49:04.522Z,6272.00
2018-06-08T13:50:04.399Z,6272.00
2018-06-08T13:51:57.117Z,6272.00
2018-06-08T13:52:56.987Z,6272.00
2018-06-08T13:54:49.697Z,6272.00
2018-06-08T13:55:49.596Z,6272.00
2018-06-08T13:57:42.303Z,6272.00
2018-06-08T13:58:42.188Z,6272.00
2018-06-08T14:00:34.903Z,16960.00
2018-06-08T14:01:34.813Z,16960.00
2018-06-08T14:03:27.527Z,16672.00
2018-06-08T14:04:27.406Z,16672.00
2018-06-08T14:06:20.106Z,15008.00
2018-06-08T14:07:20.012Z,14012.00
2018-06-08T14:09:12.725Z,12844.00
2018-06-08T14:10:12.605Z,12844.00
2018-06-08T14:12:05.306Z,11904.00
2018-06-08T14:13:05.211Z,11948.00
2018-06-08T14:14:58.426Z,12228.00
2018-06-08T14:15:58.315Z,12228.00
2018-06-08T14:17:50.993Z,13828.00
2018-06-08T14:18:50.900Z,14848.00
2018-06-08T14:20:43.768Z,14816.00
2018-06-08T14:21:43.502Z,14816.00
2018-06-08T14:23:36.195Z,12812.00
2018-06-08T14:24:36.095Z,12408.00
2018-06-08T14:26:28.964Z,11576.00
2018-06-08T14:27:28.730Z,11576.00
2018-06-08T14:29:21.421Z,10592.00
2018-06-08T14:30:21.307Z,10832.00
2018-06-08T14:32:14.016Z,10468.00
2018-06-08T14:33:13.904Z,10468.00
2018-06-08T14:35:06.615Z,8800.00
2018-06-08T14:36:06.506Z,8444.00
2018-06-08T14:37:59.210Z,7964.00
2018-06-08T14:38:59.097Z,7964.00
2018-06-08T14:40:51.805Z,7964.00
2018-06-08T14:41:51.695Z,7964.00
2018-06-08T14:43:44.396Z,7964.00
2018-06-08T14:44:44.296Z,7964.00
2018-06-08T14:46:37.002Z,7964.00
2018-06-08T14:47:36.942Z,7964.00
2018-06-08T14:49:29.604Z,7964.00
2018-06-08T14:50:29.488Z,7964.00
2018-06-08T14:52:22.214Z,7964.00
2018-06-08T14:53:22.121Z,7964.00
2018-06-08T14:55:14.876Z,7964.00
2018-06-08T14:56:14.765Z,7964.00
2018-06-08T14:58:07.449Z,7964.00
2018-06-08T14:59:07.394Z,7964.00
2018-06-08T15:01:00.062Z,13196.00
2018-06-08T15:01:59.948Z,13492.00
2018-06-08T15:03:52.643Z,12672.00
2018-06-08T15:04:52.541Z,12672.00
2018-06-08T15:06:45.254Z,9488.00
2018-06-08T15:07:45.135Z,9464.00
2018-06-08T15:09:37.823Z,9432.00
2018-06-08T15:10:37.733Z,9432.00
2018-06-08T15:12:30.466Z,9432.00
2018-06-08T15:13:30.321Z,9432.00
2018-06-08T15:15:23.051Z,9432.00
2018-06-08T15:16:22.923Z,9432.00
2018-06-08T15:18:15.617Z,9432.00
2018-06-08T15:19:15.518Z,9432.00
2018-06-08T15:21:08.240Z,9432.00
2018-06-08T15:22:08.129Z,9432.00
2018-06-08T15:24:00.812Z,9432.00
2018-06-08T15:25:00.723Z,9432.00
2018-06-08T15:26:53.433Z,10304.00
2018-06-08T15:27:53.317Z,10188.00
2018-06-08T15:29:46.020Z,10084.00
2018-06-08T15:30:45.910Z,10084.00
2018-06-08T15:32:38.630Z,10704.00
2018-06-08T15:33:38.518Z,10680.00
2018-06-08T15:35:31.263Z,10564.00
2018-06-08T15:36:31.173Z,10564.00
2018-06-08T15:38:23.888Z,10400.00
2018-06-08T15:39:23.771Z,10352.00
2018-06-08T15:41:16.466Z,10188.00
2018-06-08T15:42:16.409Z,10188.00
2018-06-08T15:44:09.085Z,9180.00
2018-06-08T15:45:08.967Z,8780.00
2018-06-08T15:47:01.667Z,8176.00
2018-06-08T15:48:01.561Z,8176.00
2018-06-08T15:49:54.315Z,7300.00
2018-06-08T15:50:54.204Z,7356.00
2018-06-08T15:52:46.905Z,6708.00
2018-06-08T15:53:46.812Z,6708.00
2018-06-08T15:55:39.521Z,5836.00
2018-06-08T15:56:39.401Z,5664.00
2018-06-08T15:58:32.120Z,5584.00
2018-06-08T15:59:32.017Z,5584.00
2018-06-08T16:01:24.723Z,5332.00
2018-06-08T16:02:24.614Z,5220.00
2018-06-08T16:04:17.310Z,5076.00
2018-06-08T16:05:17.219Z,5076.00
2018-06-08T16:07:09.922Z,5076.00
2018-06-08T16:08:09.802Z,5076.00
2018-06-08T16:10:02.549Z,5076.00
2018-06-08T16:11:02.425Z,5076.00
2018-06-08T16:12:55.137Z,5076.00
2018-06-08T16:13:55.018Z,5076.00
2018-06-08T16:15:47.714Z,5076.00
2018-06-08T16:16:47.617Z,5076.00
2018-06-08T16:18:40.330Z,5076.00
2018-06-08T16:19:40.209Z,5076.00
2018-06-08T16:21:32.906Z,5076.00
2018-06-08T16:22:32.872Z,5076.00
2018-06-08T16:24:25.520Z,5076.00
2018-06-08T16:25:25.411Z,5076.00
2018-06-08T16:27:18.090Z,5076.00
2018-06-08T16:28:17.993Z,5076.00
2018-06-08T16:30:10.716Z,5076.00
2018-06-08T16:31:10.593Z,5076.00
2018-06-08T16:33:03.290Z,5076.00
2018-06-08T16:34:03.197Z,5076.00
2018-06-08T16:35:55.916Z,5076.00
2018-06-08T16:36:55.786Z,5076.00
2018-06-08T16:38:48.488Z,5076.00
2018-06-08T16:39:48.389Z,5076.00
2018-06-08T16:41:41.116Z,5076.00
2018-06-08T16:42:40.985Z,5076.00
2018-06-08T16:44:33.707Z,5076.00
2018-06-08T16:45:33.581Z,5076.00
2018-06-08T16:47:26.283Z,5076.00
2018-06-08T16:48:26.178Z,5076.00
2018-06-08T16:50:18.888Z,5076.00
2018-06-08T16:51:18.769Z,5076.00
2018-06-08T16:53:11.469Z,5076.00
2018-06-08T16:54:11.366Z,5076.00
2018-06-08T16:56:04.086Z,5076.00
2018-06-08T16:57:03.966Z,5076.00
2018-06-08T16:58:56.658Z,5076.00
2018-06-08T16:59:56.579Z,5076.00
2018-06-08T17:01:49.271Z,5076.00
2018-06-08T17:02:49.154Z,5076.00
2018-06-08T17:04:41.850Z,5076.00
2018-06-08T17:05:41.747Z,5076.00
2018-06-08T17:07:34.464Z,5076.00
2018-06-08T17:08:34.350Z,5076.00
2018-06-08T17:10:27.042Z,5076.00
2018-06-08T17:11:26.944Z,5076.00
2018-06-08T17:13:19.657Z,5076.00
2018-06-08T17:14:19.544Z,5076.00
2018-06-08T17:16:12.229Z,5076.00
2018-06-08T17:17:12.128Z,5076.00
2018-06-08T17:19:04.841Z,5076.00
2018-06-08T17:20:04.731Z,5076.00
2018-06-08T17:21:57.413Z,5076.00
2018-06-08T17:22:57.311Z,5076.00
2018-06-08T17:24:50.020Z,5076.00
2018-06-08T17:25:49.904Z,5076.00
2018-06-08T17:27:42.597Z,5076.00
2018-06-08T17:28:42.501Z,5076.00
2018-06-08T17:30:35.217Z,5076.00
2018-06-08T17:31:35.093Z,5076.00
2018-06-08T17:33:27.788Z,5076.00
2018-06-08T17:34:27.685Z,5076.00
2018-06-08T17:36:20.433Z,5076.00
2018-06-08T17:37:20.289Z,5076.00
2018-06-08T17:39:12.992Z,5076.00
2018-06-08T17:40:12.874Z,5076.00
2018-06-08T17:42:05.563Z,5076.00
2018-06-08T17:43:05.466Z,5076.00
2018-06-08T17:44:58.181Z,5076.00
2018-06-08T17:45:58.058Z,5076.00
2018-06-08T17:47:50.757Z,5076.00
2018-06-08T17:48:50.660Z,5076.00
2018-06-08T17:50:43.374Z,5076.00
2018-06-08T17:51:43.252Z,5076.00
2018-06-08T17:53:35.953Z,5076.00
2018-06-08T17:54:35.850Z,5076.00
2018-06-08T17:56:28.570Z,5076.00
2018-06-08T17:57:28.458Z,5076.00
2018-06-08T17:59:21.175Z,5076.00
2018-06-08T18:00:21.052Z,5076.00
2018-06-08T18:02:13.747Z,5076.00
2018-06-08T18:03:13.652Z,5076.00
2018-06-08T18:05:06.366Z,5076.00
2018-06-08T18:06:06.263Z,5076.00
2018-06-08T18:07:58.941Z,5076.00
2018-06-08T18:08:58.839Z,5076.00
2018-06-08T18:10:51.565Z,5076.00
2018-06-08T18:11:51.471Z,5076.00
2018-06-08T18:13:44.130Z,5076.00
2018-06-08T18:14:44.033Z,5076.00
2018-06-08T18:16:36.748Z,5076.00
2018-06-08T18:17:36.683Z,5076.00
2018-06-08T18:19:29.326Z,5076.00
2018-06-08T18:20:29.233Z,5076.00
2018-06-08T18:22:21.942Z,5076.00
2018-06-08T18:23:21.867Z,5076.00
2018-06-08T18:25:14.513Z,5076.00
2018-06-08T18:26:14.412Z,5076.00
2018-06-08T18:28:07.117Z,5076.00
2018-06-08T18:29:07.007Z,5076.00
2018-06-08T18:30:59.693Z,5076.00
2018-06-08T18:31:59.601Z,5076.00
2018-06-08T18:33:52.319Z,5076.00
2018-06-08T18:34:52.196Z,5076.00
2018-06-08T18:36:44.882Z,5076.00
2018-06-08T18:37:44.786Z,5076.00
2018-06-08T18:39:37.484Z,5076.00
2018-06-08T18:40:37.376Z,5076.00
2018-06-08T18:42:30.065Z,5076.00
2018-06-08T18:43:29.963Z,5076.00
2018-06-08T18:45:22.691Z,5076.00
2018-06-08T18:46:22.574Z,5076.00
2018-06-08T18:48:15.264Z,5076.00
2018-06-08T18:49:15.161Z,5076.00
2018-06-08T18:51:07.875Z,5076.00
2018-06-08T18:52:07.759Z,5076.00
2018-06-08T18:54:00.463Z,5076.00
2018-06-08T18:55:00.348Z,5076.00
2018-06-08T18:56:53.041Z,5076.00
2018-06-08T18:57:52.940Z,5076.00
2018-06-08T18:59:45.653Z,5076.00
2018-06-08T19:00:45.533Z,5076.00
2018-06-08T19:02:38.219Z,5076.00
2018-06-08T19:03:38.119Z,5076.00
2018-06-08T19:05:30.832Z,5076.00
2018-06-08T19:06:30.712Z,5076.00
2018-06-08T19:08:23.408Z,5076.00
2018-06-08T19:09:23.301Z,5076.00
2018-06-08T19:11:16.017Z,5076.00
2018-06-08T19:12:15.904Z,5076.00
2018-06-08T19:14:08.584Z,5076.00
2018-06-08T19:15:08.489Z,5076.00
2018-06-08T19:17:01.199Z,5076.00
2018-06-08T19:18:01.075Z,5076.00
2018-06-08T19:19:53.772Z,5076.00
2018-06-08T19:20:53.668Z,5076.00
2018-06-08T19:22:46.381Z,5076.00
2018-06-08T19:23:46.261Z,5076.00
2018-06-08T19:25:38.946Z,5076.00
2018-06-08T19:26:38.849Z,5076.00
2018-06-08T19:28:31.561Z,5076.00
2018-06-08T19:29:31.434Z,5076.00
2018-06-08T19:31:24.423Z,5076.00
2018-06-08T19:32:24.294Z,5076.00
2018-06-08T19:34:16.859Z,5076.00
2018-06-08T19:35:16.796Z,5076.00
2018-06-08T19:37:09.865Z,5076.00
2018-06-08T19:38:09.602Z,5076.00
2018-06-08T19:40:02.234Z,5076.00
2018-06-08T19:41:02.606Z,5076.00
2018-06-08T19:42:54.778Z,5076.00
2018-06-08T19:43:54.663Z,5076.00
2018-06-08T19:45:47.334Z,5076.00
2018-06-08T19:46:47.065Z,5076.00
2018-06-08T19:48:39.755Z,5076.00
2018-06-08T19:49:39.658Z,5076.00
2018-06-08T19:51:32.362Z,5076.00
2018-06-08T19:52:32.247Z,5076.00
2018-06-08T19:54:24.943Z,5076.00
2018-06-08T19:55:24.845Z,5076.00
2018-06-08T19:57:17.552Z,5076.00
2018-06-08T19:58:17.436Z,5076.00
2018-06-08T20:00:10.120Z,5076.00
2018-06-08T20:01:10.019Z,5076.00
2018-06-08T20:03:02.724Z,5076.00
2018-06-08T20:04:02.611Z,5076.00
2018-06-08T20:05:55.314Z,5076.00
2018-06-08T20:06:55.207Z,5076.00
2018-06-08T20:08:47.878Z,5076.00
2018-06-08T20:09:48.268Z,5076.00
2018-06-08T20:11:40.486Z,5076.00
2018-06-08T20:12:40.395Z,5076.00
2018-06-08T20:14:33.061Z,5076.00
2018-06-08T20:15:32.963Z,5076.00
2018-06-08T20:17:25.674Z,5076.00
2018-06-08T20:18:25.555Z,5076.00
2018-06-08T20:20:18.257Z,5076.00
2018-06-08T20:21:18.152Z,5076.00
2018-06-08T20:23:10.861Z,5076.00
2018-06-08T20:24:10.744Z,5076.00
2018-06-08T20:26:03.436Z,5076.00
2018-06-08T20:27:03.333Z,5076.00
2018-06-08T20:28:56.039Z,5076.00
2018-06-08T20:29:55.921Z,5076.00
2018-06-08T20:31:48.607Z,5076.00
2018-06-08T20:32:48.510Z,5076.00
2018-06-08T20:34:41.211Z,5076.00
2018-06-08T20:35:41.098Z,5076.00
2018-06-08T20:37:33.782Z,5076.00
2018-06-08T20:38:33.678Z,5076.00
2018-06-08T20:40:26.384Z,5076.00
2018-06-08T20:41:26.269Z,5076.00
2018-06-08T20:43:18.972Z,5076.00
2018-06-08T20:44:18.854Z,5076.00
2018-06-08T20:46:11.538Z,5076.00
2018-06-08T20:47:11.436Z,5076.00
2018-06-08T20:49:04.154Z,5076.00
2018-06-08T20:50:04.029Z,5076.00
2018-06-08T20:51:56.714Z,5076.00
2018-06-08T20:52:56.617Z,5076.00
2018-06-08T20:54:49.323Z,5076.00
2018-06-08T20:55:49.197Z,5076.00
2018-06-08T20:57:41.885Z,5076.00
2018-06-08T20:58:41.789Z,5076.00
2018-06-08T21:00:34.508Z,5076.00
2018-06-08T21:01:34.372Z,5076.00
2018-06-08T21:03:27.063Z,5076.00
2018-06-08T21:04:26.959Z,5076.00
2018-06-08T21:06:19.668Z,5076.00
2018-06-08T21:07:19.546Z,5076.00
2018-06-08T21:09:12.235Z,5076.00
2018-06-08T21:10:12.129Z,5076.00
2018-06-08T21:12:04.846Z,5076.00
2018-06-08T21:13:04.722Z,5076.00
2018-06-08T21:14:57.441Z,5076.00
2018-06-08T21:15:57.313Z,5076.00
2018-06-08T21:17:50.145Z,5076.00
2018-06-08T21:18:49.899Z,5076.00
2018-06-08T21:20:42.597Z,5076.00
2018-06-08T21:21:42.499Z,5076.00
2018-06-08T21:23:35.176Z,5076.00
2018-06-08T21:24:35.078Z,5076.00
2018-06-08T21:26:27.769Z,5076.00
2018-06-08T21:27:27.647Z,5076.00
2018-06-08T21:29:20.331Z,5076.00
2018-06-08T21:30:20.232Z,5076.00
2018-06-08T21:32:12.938Z,5076.00
2018-06-08T21:33:12.814Z,5076.00
2018-06-08T21:35:05.505Z,5076.00
2018-06-08T21:36:05.405Z,5076.00
2018-06-08T21:37:58.104Z,5076.00
2018-06-08T21:38:57.986Z,5076.00
2018-06-08T21:40:50.698Z,5076.00
2018-06-08T21:41:50.583Z,5076.00
2018-06-08T21:43:43.264Z,5076.00
2018-06-08T21:44:43.168Z,5076.00
2018-06-08T21:46:36.059Z,5076.00
2018-06-08T21:47:35.942Z,5076.00
2018-06-08T21:49:28.631Z,5076.00
2018-06-08T21:50:28.530Z,5076.00
2018-06-08T21:52:21.281Z,5076.00